createdAt,value
2019-04-21T18:22:43.541Z,98208.00
2019-04-21T18:25:01.590Z,98221.38
2019-04-21T18:27:11.409Z,98221.38
2019-04-21T18:29:23.460Z,98225.61
2019-04-21T18:31:42.642Z,98217.50
2019-04-21T18:33:59.005Z,98216.00
2019-04-21T18:36:08.488Z,98218.25
2019-04-21T18:38:28.082Z,98224.05
2019-04-21T18:40:37.642Z,98222.01
2019-04-21T18:43:30.814Z,98224.84
2019-04-21T18:45:44.335Z,98225.18
2019-04-21T18:47:50.050Z,98226.36
2019-04-21T18:49:52.372Z,98228.33
2019-04-21T18:52:16.811Z,98225.05
2019-04-21T18:54:37.418Z,98224.75
2019-04-21T18:56:33.777Z,98227.45
2019-04-21T18:58:44.759Z,98225.48
2019-04-21T19:01:03.237Z,98226.63
2019-04-21T19:03:11.510Z,98227.16
2019-04-21T19:05:24.615Z,98224.89
2019-04-21T19:07:58.443Z,98230.72
2019-04-21T19:12:23.750Z,98242.64
2019-04-21T19:14:35.507Z,98238.94
2019-04-21T19:16:49.705Z,98234.86
2019-04-21T19:19:09.780Z,98238.53
2019-04-21T19:21:10.153Z,98241.97
2019-04-21T19:23:36.327Z,98237.00
2019-04-21T19:25:41.301Z,98240.22
2019-04-21T19:27:48.830Z,98241.95
2019-04-21T19:30:16.410Z,98239.35
2019-04-21T19:32:19.824Z,98238.74
2019-04-21T19:34:19.831Z,98244.12
2019-04-21T19:36:23.716Z,98244.09
2019-04-21T19:38:46.812Z,98242.56
2019-04-21T19:41:01.700Z,98237.22
2019-04-21T19:43:07.859Z,98236.78
2019-04-21T19:45:27.910Z,98236.20
2019-04-21T19:47:44.924Z,98241.97
2019-04-21T19:50:04.672Z,98236.67
2019-04-21T19:51:59.632Z,98236.56
2019-04-21T19:54:18.940Z,98228.50
2019-04-21T19:56:19.444Z,98232.55
2019-04-21T19:58:33.765Z,98232.55
2019-04-21T20:00:44.508Z,98231.11
2019-04-21T20:02:56.614Z,98228.97
2019-04-21T20:05:13.629Z,98229.91
2019-04-21T20:07:32.695Z,98232.51
2019-04-21T20:09:48.828Z,98226.08
2019-04-21T20:11:58.107Z,98227.64
2019-04-21T20:16:35.201Z,98225.98
2019-04-21T20:18:32.820Z,98221.02
2019-04-21T20:20:39.613Z,98215.50
2019-04-21T20:22:53.471Z,98223.02
2019-04-21T20:25:10.648Z,98222.45
2019-04-21T20:27:30.827Z,98220.55
2019-04-21T20:29:53.902Z,98223.50
2019-04-21T20:32:08.390Z,98219.45
2019-04-21T20:34:22.974Z,98219.81
2019-04-21T20:36:26.217Z,98216.36
2019-04-21T20:38:35.587Z,98216.80
2019-04-21T20:40:48.107Z,98213.11
2019-04-21T20:43:10.128Z,98220.23
2019-04-21T20:47:25.537Z,98222.36
2019-04-21T20:49:40.870Z,98222.69
2019-04-21T20:52:08.128Z,98222.05
2019-04-21T20:54:12.726Z,98218.58
2019-04-21T20:56:15.996Z,98216.98
2019-04-21T20:58:34.815Z,98211.73
2019-04-21T21:00:56.189Z,98213.03
2019-04-21T21:03:07.652Z,98216.95
2019-04-21T21:05:09.205Z,98211.38
2019-04-21T21:07:41.680Z,98212.42
2019-04-21T21:09:41.340Z,98213.47
2019-04-21T21:12:10.173Z,98205.90
2019-04-21T21:14:07.405Z,98206.38
2019-04-21T21:16:29.736Z,98206.02
2019-04-21T21:18:58.177Z,98205.12
2019-04-21T21:20:53.042Z,98206.98
2019-04-21T21:22:57.484Z,98207.67
2019-04-21T21:25:21.349Z,98204.10
2019-04-21T21:27:19.566Z,98209.00
2019-04-21T21:29:33.538Z,98204.59
2019-04-21T21:31:59.579Z,98204.48
2019-04-21T21:34:09.538Z,98200.83
2019-04-21T21:36:35.295Z,98201.87
2019-04-21T21:38:31.532Z,98203.08
2019-04-21T21:40:44.020Z,98201.94
2019-04-21T21:42:43.791Z,98198.25
2019-04-21T21:44:59.833Z,98192.84
2019-04-21T21:47:20.544Z,98200.29
2019-04-21T21:49:33.691Z,98196.06
2019-04-21T21:51:43.256Z,98187.63
2019-04-21T21:53:44.399Z,98194.52
2019-04-21T21:55:56.391Z,98194.41
2019-04-21T21:58:08.538Z,98186.02
2019-04-21T22:00:24.159Z,98194.07
2019-04-21T22:02:43.892Z,98191.11
2019-04-21T22:04:57.914Z,98185.55
2019-04-21T22:07:07.241Z,98192.01
2019-04-21T22:09:14.552Z,98189.55
2019-04-21T22:11:26.305Z,98184.91
2019-04-21T22:13:46.890Z,98180.05
2019-04-21T22:15:59.450Z,98173.03
2019-04-21T22:18:25.910Z,98178.30
2019-04-21T22:20:33.423Z,98173.66
2019-04-21T22:22:41.726Z,98173.03
2019-04-21T22:24:53.444Z,98174.72
2019-04-21T22:26:54.856Z,98177.80
2019-04-21T22:29:05.822Z,98171.55
2019-04-21T22:31:21.187Z,98172.17
2019-04-21T22:33:34.520Z,98171.61
2019-04-21T22:35:49.633Z,98174.94
2019-04-21T22:38:12.417Z,98169.30
2019-04-21T22:40:21.839Z,98176.30
2019-04-21T22:42:27.192Z,98176.14
2019-04-21T22:44:34.508Z,98168.45
2019-04-21T22:46:54.891Z,98174.80
2019-04-21T22:49:06.811Z,98174.91
2019-04-21T22:51:26.595Z,98168.48
2019-04-21T22:53:41.425Z,98175.09
2019-04-21T22:55:49.497Z,98168.62
2019-04-21T22:58:01.578Z,98168.47
2019-04-21T23:00:16.714Z,98174.33
2019-04-21T23:02:30.446Z,98166.24
2019-04-21T23:04:46.256Z,98166.08
2019-04-21T23:06:59.303Z,98163.78
2019-04-21T23:09:06.655Z,98162.58
2019-04-21T23:11:18.389Z,98165.77
2019-04-21T23:13:30.897Z,98163.52
2019-04-21T23:15:50.629Z,98163.83
2019-04-21T23:18:17.711Z,98163.83
2019-04-21T23:20:33.139Z,98158.91
2019-04-21T23:22:52.640Z,98159.75
2019-04-21T23:24:59.527Z,98150.02
2019-04-21T23:26:59.777Z,98146.23
2019-04-21T23:29:17.441Z,98149.66
2019-04-21T23:31:34.425Z,98141.03
2019-04-21T23:33:27.538Z,98145.59
2019-04-21T23:35:43.456Z,98145.02
2019-04-21T23:37:57.725Z,98139.66
2019-04-21T23:40:11.957Z,98133.17
2019-04-21T23:42:25.857Z,98133.28
2019-04-21T23:44:33.854Z,98137.83
2019-04-21T23:46:44.439Z,98127.81
2019-04-21T23:49:13.947Z,98132.54
2019-04-21T23:51:21.860Z,98121.03
2019-04-21T23:53:23.579Z,98127.45
2019-04-21T23:55:35.039Z,98134.66
2019-04-21T23:57:48.401Z,98132.72
